sensor_id;sensor_type;location;lat;lon;timestamp;pressure;altitude;pressure_sealevel;temperature;humidity
29247;BME280;16272;48.188;9.964;2023-12-20T00:02:22;95861.06;;;4.84;62.91
29247;BME280;16272;48.188;9.964;2023-12-20T00:04:47;95858.00;;;5.01;62.89
29247;BME280;16272;48.188;9.964;2023-12-20T00:07:12;95845.84;;;4.65;64.33
29247;BME280;16272;48.188;9.964;2023-12-20T00:09:38;95853.44;;;4.56;65.31
29247;BME280;16272;48.188;9.964;2023-12-20T00:12:03;95856.81;;;4.58;65.52
29247;BME280;16272;48.188;9.964;2023-12-20T00:14:29;95847.44;;;4.43;66.01
29247;BME280;16272;48.188;9.964;2023-12-20T00:16:54;95843.00;;;4.44;67.04
29247;BME280;16272;48.188;9.964;2023-12-20T00:19:19;95832.16;;;4.48;66.88
29247;BME280;16272;48.188;9.964;2023-12-20T00:21:45;95835.53;;;4.62;67.09
29247;BME280;16272;48.188;9.964;2023-12-20T00:24:10;95832.03;;;4.50;67.29
29247;BME280;16272;48.188;9.964;2023-12-20T00:26:35;95835.75;;;4.58;67.01
29247;BME280;16272;48.188;9.964;2023-12-20T00:29:01;95834.94;;;4.58;67.24
29247;BME280;16272;48.188;9.964;2023-12-20T00:31:26;95848.97;;;4.70;67.28
29247;BME280;16272;48.188;9.964;2023-12-20T00:33:51;95840.31;;;4.56;68.02
29247;BME280;16272;48.188;9.964;2023-12-20T00:36:16;95833.09;;;4.47;68.53
29247;BME280;16272;48.188;9.964;2023-12-20T00:38:42;95822.13;;;4.53;68.66
29247;BME280;16272;48.188;9.964;2023-12-20T00:41:07;95810.59;;;4.43;69.93
29247;BME280;16272;48.188;9.964;2023-12-20T00:43:32;95812.19;;;4.21;70.87
29247;BME280;16272;48.188;9.964;2023-12-20T00:45:58;95805.75;;;4.26;71.08
29247;BME280;16272;48.188;9.964;2023-12-20T00:48:25;95820.25;;;4.07;72.45
29247;BME280;16272;48.188;9.964;2023-12-20T00:50:52;95806.38;;;4.05;72.74
29247;BME280;16272;48.188;9.964;2023-12-20T00:53:17;95805.03;;;4.23;71.95
29247;BME280;16272;48.188;9.964;2023-12-20T00:55:42;95801.69;;;4.33;71.42
29247;BME280;16272;48.188;9.964;2023-12-20T00:58:09;95793.81;;;4.33;71.69
29247;BME280;16272;48.188;9.964;2023-12-20T01:00:34;95791.94;;;4.35;71.58
29247;BME280;16272;48.188;9.964;2023-12-20T01:02:59;95788.25;;;4.13;72.53
29247;BME280;16272;48.188;9.964;2023-12-20T01:05:25;95775.28;;;3.99;74.17
29247;BME280;16272;48.188;9.964;2023-12-20T01:07:50;95778.63;;;4.01;73.16
29247;BME280;16272;48.188;9.964;2023-12-20T01:10:15;95774.59;;;4.08;73.83
29247;BME280;16272;48.188;9.964;2023-12-20T01:12:41;95767.91;;;4.04;74.07
29247;BME280;16272;48.188;9.964;2023-12-20T01:15:06;95764.06;;;4.08;74.27
29247;BME280;16272;48.188;9.964;2023-12-20T01:17:31;95763.25;;;4.08;74.31
29247;BME280;16272;48.188;9.964;2023-12-20T01:19:57;95770.91;;;3.86;75.55
29247;BME280;16272;48.188;9.964;2023-12-20T01:22:23;95762.41;;;4.07;75.59
29247;BME280;16272;48.188;9.964;2023-12-20T01:24:48;95763.84;;;4.11;75.35
29247;BME280;16272;48.188;9.964;2023-12-20T01:27:13;95752.66;;;4.20;74.60
29247;BME280;16272;48.188;9.964;2023-12-20T01:29:39;95757.00;;;4.33;75.02
29247;BME280;16272;48.188;9.964;2023-12-20T01:32:04;95769.50;;;4.18;75.46
29247;BME280;16272;48.188;9.964;2023-12-20T01:34:30;95778.19;;;4.07;76.43
29247;BME280;16272;48.188;9.964;2023-12-20T01:36:55;95768.41;;;4.09;76.91
29247;BME280;16272;48.188;9.964;2023-12-20T01:39:21;95762.47;;;3.94;77.06
29247;BME280;16272;48.188;9.964;2023-12-20T01:41:46;95770.19;;;4.09;77.70
29247;BME280;16272;48.188;9.964;2023-12-20T01:44:11;95772.50;;;4.13;76.96
29247;BME280;16272;48.188;9.964;2023-12-20T01:46:36;95771.78;;;4.22;77.04
29247;BME280;16272;48.188;9.964;2023-12-20T01:49:02;95766.38;;;4.13;77.27
29247;BME280;16272;48.188;9.964;2023-12-20T01:51:27;95776.88;;;4.13;78.09
29247;BME280;16272;48.188;9.964;2023-12-20T01:53:55;95772.31;;;4.39;76.88
29247;BME280;16272;48.188;9.964;2023-12-20T01:56:22;95766.47;;;4.35;77.53
29247;BME280;16272;48.188;9.964;2023-12-20T01:58:48;95766.41;;;4.48;76.93
29247;BME280;16272;48.188;9.964;2023-12-20T02:01:13;95765.31;;;4.15;77.92
29247;BME280;16272;48.188;9.964;2023-12-20T02:03:42;95762.25;;;4.33;77.31
29247;BME280;16272;48.188;9.964;2023-12-20T02:06:08;95770.91;;;4.35;77.64
29247;BME280;16272;48.188;9.964;2023-12-20T02:08:35;95759.53;;;4.34;77.41
29247;BME280;16272;48.188;9.964;2023-12-20T02:11:00;95766.41;;;4.48;77.46
29247;BME280;16272;48.188;9.964;2023-12-20T02:13:26;95773.63;;;4.33;77.90
29247;BME280;16272;48.188;9.964;2023-12-20T02:15:52;95768.06;;;4.49;78.06
29247;BME280;16272;48.188;9.964;2023-12-20T02:18:17;95767.03;;;4.28;78.38
29247;BME280;16272;48.188;9.964;2023-12-20T02:20:42;95771.16;;;4.43;78.27
29247;BME280;16272;48.188;9.964;2023-12-20T02:23:08;95773.53;;;4.35;78.42
29247;BME280;16272;48.188;9.964;2023-12-20T02:25:33;95769.16;;;4.22;79.63
29247;BME280;16272;48.188;9.964;2023-12-20T02:27:58;95772.50;;;4.24;79.72
29247;BME280;16272;48.188;9.964;2023-12-20T02:30:24;95773.00;;;4.18;80.16
29247;BME280;16272;48.188;9.964;2023-12-20T02:32:49;95763.72;;;4.37;79.81
29247;BME280;16272;48.188;9.964;2023-12-20T02:35:15;95765.00;;;4.20;80.61
29247;BME280;16272;48.188;9.964;2023-12-20T02:37:40;95764.63;;;4.24;80.83
29247;BME280;16272;48.188;9.964;2023-12-20T02:40:06;95762.97;;;4.23;81.40
29247;BME280;16272;48.188;9.964;2023-12-20T02:42:31;95754.81;;;4.15;81.39
29247;BME280;16272;48.188;9.964;2023-12-20T02:44:57;95752.28;;;4.14;81.35
29247;BME280;16272;48.188;9.964;2023-12-20T02:47:22;95761.44;;;4.08;82.13
29247;BME280;16272;48.188;9.964;2023-12-20T02:49:47;95759.06;;;4.05;82.30
29247;BME280;16272;48.188;9.964;2023-12-20T02:52:13;95764.88;;;3.97;82.69
29247;BME280;16272;48.188;9.964;2023-12-20T02:54:38;95763.25;;;4.08;82.45
29247;BME280;16272;48.188;9.964;2023-12-20T02:57:03;95750.94;;;4.08;82.43
29247;BME280;16272;48.188;9.964;2023-12-20T02:59:29;95755.91;;;4.00;82.78
29247;BME280;16272;48.188;9.964;2023-12-20T03:01:54;95760.19;;;4.14;82.13
29247;BME280;16272;48.188;9.964;2023-12-20T03:04:19;95756.16;;;3.97;83.17
29247;BME280;16272;48.188;9.964;2023-12-20T03:06:45;95751.84;;;4.20;82.74
29247;BME280;16272;48.188;9.964;2023-12-20T03:09:10;95766.72;;;4.08;83.54
29247;BME280;16272;48.188;9.964;2023-12-20T03:11:35;95763.06;;;4.22;82.58
29247;BME280;16272;48.188;9.964;2023-12-20T03:14:00;95769.97;;;4.12;83.20
29247;BME280;16272;48.188;9.964;2023-12-20T03:16:26;95756.84;;;4.12;84.16
29247;BME280;16272;48.188;9.964;2023-12-20T03:18:51;95762.63;;;4.04;84.09
29247;BME280;16272;48.188;9.964;2023-12-20T03:21:16;95744.28;;;4.15;83.77
29247;BME280;16272;48.188;9.964;2023-12-20T03:23:42;95738.38;;;4.00;84.36
29247;BME280;16272;48.188;9.964;2023-12-20T03:26:08;95737.06;;;4.06;84.68
29247;BME280;16272;48.188;9.964;2023-12-20T03:28:33;95737.13;;;4.17;84.37
29247;BME280;16272;48.188;9.964;2023-12-20T03:30:59;95741.16;;;4.10;84.88
29247;BME280;16272;48.188;9.964;2023-12-20T03:33:24;95746.44;;;4.10;84.60
29247;BME280;16272;48.188;9.964;2023-12-20T03:35:49;95739.06;;;4.27;84.68
29247;BME280;16272;48.188;9.964;2023-12-20T03:38:15;95741.66;;;4.15;84.37
29247;BME280;16272;48.188;9.964;2023-12-20T03:40:40;95740.13;;;4.24;84.35
29247;BME280;16272;48.188;9.964;2023-12-20T03:43:05;95739.78;;;4.29;84.95
29247;BME280;16272;48.188;9.964;2023-12-20T03:45:31;95748.41;;;4.31;84.95
29247;BME280;16272;48.188;9.964;2023-12-20T03:47:56;95749.38;;;4.30;85.18
29247;BME280;16272;48.188;9.964;2023-12-20T03:50:22;95752.44;;;4.23;86.29
29247;BME280;16272;48.188;9.964;2023-12-20T03:52:48;95752.66;;;4.20;86.46
29247;BME280;16272;48.188;9.964;2023-12-20T03:55:13;95760.03;;;4.39;86.03
29247;BME280;16272;48.188;9.964;2023-12-20T03:57:38;95766.31;;;4.26;86.71
29247;BME280;16272;48.188;9.964;2023-12-20T04:00:05;95767.66;;;4.42;86.28
29247;BME280;16272;48.188;9.964;2023-12-20T04:02:34;95781.63;;;4.32;86.61
29247;BME280;16272;48.188;9.964;2023-12-20T04:04:59;95776.88;;;4.37;86.60
29247;BME280;16272;48.188;9.964;2023-12-20T04:07:24;95780.66;;;4.33;86.27
29247;BME280;16272;48.188;9.964;2023-12-20T04:09:50;95784.81;;;4.48;86.08
29247;BME280;16272;48.188;9.964;2023-12-20T04:12:15;95766.66;;;4.56;85.55
29247;BME280;16272;48.188;9.964;2023-12-20T04:14:40;95774.63;;;4.44;86.38
29247;BME280;16272;48.188;9.964;2023-12-20T04:17:05;95779.06;;;4.43;87.05
29247;BME280;16272;48.188;9.964;2023-12-20T04:19:31;95782.13;;;4.37;86.82
29247;BME280;16272;48.188;9.964;2023-12-20T04:21:56;95791.19;;;4.33;87.28
29247;BME280;16272;48.188;9.964;2023-12-20T04:24:21;95788.34;;;4.36;87.33
29247;BME280;16272;48.188;9.964;2023-12-20T04:26:47;95787.56;;;4.22;87.24
29247;BME280;16272;48.188;9.964;2023-12-20T04:29:13;95789.53;;;4.08;87.32
29247;BME280;16272;48.188;9.964;2023-12-20T04:31:38;95791.66;;;4.27;87.35
29247;BME280;16272;48.188;9.964;2023-12-20T04:34:03;95797.75;;;4.27;87.01
29247;BME280;16272;48.188;9.964;2023-12-20T04:36:29;95793.09;;;4.07;88.31
29247;BME280;16272;48.188;9.964;2023-12-20T04:38:55;95795.19;;;4.14;88.16
29247;BME280;16272;48.188;9.964;2023-12-20T04:41:20;95805.25;;;4.20;87.65
29247;BME280;16272;48.188;9.964;2023-12-20T04:43:45;95803.84;;;4.28;87.62
29247;BME280;16272;48.188;9.964;2023-12-20T04:46:11;95810.50;;;4.20;87.88
29247;BME280;16272;48.188;9.964;2023-12-20T04:48:36;95819.34;;;4.19;88.27
29247;BME280;16272;48.188;9.964;2023-12-20T04:51:02;95821.69;;;4.11;88.01
29247;BME280;16272;48.188;9.964;2023-12-20T04:53:27;95818.84;;;4.14;87.93
29247;BME280;16272;48.188;9.964;2023-12-20T04:55:53;95818.63;;;4.17;88.20
29247;BME280;16272;48.188;9.964;2023-12-20T04:58:18;95825.28;;;4.10;87.81
29247;BME280;16272;48.188;9.964;2023-12-20T05:00:44;95821.03;;;4.20;87.91
29247;BME280;16272;48.188;9.964;2023-12-20T05:03:09;95827.09;;;4.21;88.41
29247;BME280;16272;48.188;9.964;2023-12-20T05:05:34;95831.94;;;4.27;87.55
29247;BME280;16272;48.188;9.964;2023-12-20T05:08:00;95826.59;;;4.40;86.59
29247;BME280;16272;48.188;9.964;2023-12-20T05:10:25;95830.56;;;4.46;86.52
29247;BME280;16272;48.188;9.964;2023-12-20T05:12:52;95828.56;;;4.25;86.76
29247;BME280;16272;48.188;9.964;2023-12-20T05:15:17;95841.63;;;4.27;87.98
29247;BME280;16272;48.188;9.964;2023-12-20T05:17:42;95839.53;;;4.19;87.67
29247;BME280;16272;48.188;9.964;2023-12-20T05:20:08;95838.47;;;4.21;87.40
29247;BME280;16272;48.188;9.964;2023-12-20T05:22:33;95844.63;;;4.09;87.49
29247;BME280;16272;48.188;9.964;2023-12-20T05:24:58;95841.97;;;4.09;87.59
29247;BME280;16272;48.188;9.964;2023-12-20T05:27:24;95841.59;;;4.02;87.74
29247;BME280;16272;48.188;9.964;2023-12-20T05:29:49;95836.72;;;4.09;87.18
29247;BME280;16272;48.188;9.964;2023-12-20T05:32:15;95843.09;;;4.18;87.71
29247;BME280;16272;48.188;9.964;2023-12-20T05:34:41;95854.03;;;3.88;88.67
29247;BME280;16272;48.188;9.964;2023-12-20T05:37:06;95856.44;;;3.91;88.15
29247;BME280;16272;48.188;9.964;2023-12-20T05:39:31;95869.94;;;3.73;89.08
29247;BME280;16272;48.188;9.964;2023-12-20T05:41:56;95860.94;;;3.89;89.17
29247;BME280;16272;48.188;9.964;2023-12-20T05:44:22;95883.16;;;3.72;89.80
29247;BME280;16272;48.188;9.964;2023-12-20T05:46:47;95882.66;;;3.79;89.40
29247;BME280;16272;48.188;9.964;2023-12-20T05:49:12;95890.53;;;3.54;89.94
29247;BME280;16272;48.188;9.964;2023-12-20T05:51:38;95884.75;;;3.74;89.22
29247;BME280;16272;48.188;9.964;2023-12-20T05:54:04;95893.75;;;3.96;88.01
29247;BME280;16272;48.188;9.964;2023-12-20T05:56:29;95900.94;;;3.81;88.75
29247;BME280;16272;48.188;9.964;2023-12-20T05:58:54;95899.44;;;3.90;88.85
29247;BME280;16272;48.188;9.964;2023-12-20T06:01:20;95882.97;;;3.75;88.77
29247;BME280;16272;48.188;9.964;2023-12-20T06:03:45;95881.72;;;3.67;88.69
29247;BME280;16272;48.188;9.964;2023-12-20T06:06:13;95881.81;;;3.66;88.96
29247;BME280;16272;48.188;9.964;2023-12-20T06:08:39;95890.53;;;3.66;89.29
29247;BME280;16272;48.188;9.964;2023-12-20T06:11:04;95885.28;;;3.79;88.69
29247;BME280;16272;48.188;9.964;2023-12-20T06:13:30;95887.69;;;3.70;89.25
29247;BME280;16272;48.188;9.964;2023-12-20T06:15:56;95885.91;;;3.70;88.85
29247;BME280;16272;48.188;9.964;2023-12-20T06:18:22;95893.25;;;3.91;88.38
29247;BME280;16272;48.188;9.964;2023-12-20T06:20:47;95901.84;;;3.93;88.77
29247;BME280;16272;48.188;9.964;2023-12-20T06:23:12;95911.88;;;3.62;88.27
29247;BME280;16272;48.188;9.964;2023-12-20T06:25:37;95906.72;;;3.60;88.85
29247;BME280;16272;48.188;9.964;2023-12-20T06:28:03;95919.22;;;3.70;88.67
29247;BME280;16272;48.188;9.964;2023-12-20T06:30:28;95912.06;;;3.72;88.44
29247;BME280;16272;48.188;9.964;2023-12-20T06:32:54;95906.09;;;3.70;88.95
29247;BME280;16272;48.188;9.964;2023-12-20T06:35:20;95904.84;;;3.62;89.42
29247;BME280;16272;48.188;9.964;2023-12-20T06:37:45;95908.19;;;3.77;88.89
29247;BME280;16272;48.188;9.964;2023-12-20T06:40:11;95915.75;;;3.69;88.88
29247;BME280;16272;48.188;9.964;2023-12-20T06:42:36;95922.78;;;3.68;89.10
29247;BME280;16272;48.188;9.964;2023-12-20T06:45:02;95925.91;;;3.86;89.03
29247;BME280;16272;48.188;9.964;2023-12-20T06:47:28;95918.47;;;3.80;88.62
29247;BME280;16272;48.188;9.964;2023-12-20T06:49:53;95928.53;;;3.86;89.53
29247;BME280;16272;48.188;9.964;2023-12-20T06:52:18;95928.34;;;3.77;88.21
29247;BME280;16272;48.188;9.964;2023-12-20T06:54:44;95933.19;;;3.70;88.78
29247;BME280;16272;48.188;9.964;2023-12-20T06:57:09;95933.91;;;3.85;89.00
29247;BME280;16272;48.188;9.964;2023-12-20T06:59:41;95928.75;;;3.83;88.39
29247;BME280;16272;48.188;9.964;2023-12-20T07:02:06;95939.06;;;3.86;88.71
29247;BME280;16272;48.188;9.964;2023-12-20T07:04:33;95945.59;;;3.94;88.29
29247;BME280;16272;48.188;9.964;2023-12-20T07:06:58;95945.59;;;3.94;88.41
29247;BME280;16272;48.188;9.964;2023-12-20T07:09:26;95944.72;;;3.93;88.47
29247;BME280;16272;48.188;9.964;2023-12-20T07:11:52;95940.75;;;3.88;88.39
29247;BME280;16272;48.188;9.964;2023-12-20T07:14:17;95947.34;;;3.80;89.33
29247;BME280;16272;48.188;9.964;2023-12-20T07:16:42;95948.94;;;3.96;89.22
29247;BME280;16272;48.188;9.964;2023-12-20T07:19:08;95947.34;;;4.06;88.53
29247;BME280;16272;48.188;9.964;2023-12-20T07:21:33;95944.59;;;4.08;88.77
29247;BME280;16272;48.188;9.964;2023-12-20T07:23:58;95945.13;;;4.00;88.67
29247;BME280;16272;48.188;9.964;2023-12-20T07:26:24;95955.44;;;4.03;89.01
29247;BME280;16272;48.188;9.964;2023-12-20T07:28:49;95958.16;;;4.14;88.65
29247;BME280;16272;48.188;9.964;2023-12-20T07:31:18;95970.03;;;4.20;88.50
29247;BME280;16272;48.188;9.964;2023-12-20T07:33:43;95973.50;;;4.20;88.29
29247;BME280;16272;48.188;9.964;2023-12-20T07:36:08;95981.47;;;4.32;87.21
29247;BME280;16272;48.188;9.964;2023-12-20T07:38:34;95980.75;;;4.30;87.90
29247;BME280;16272;48.188;9.964;2023-12-20T07:40:59;95980.38;;;4.34;87.78
29247;BME280;16272;48.188;9.964;2023-12-20T07:43:25;95983.03;;;4.34;86.94
29247;BME280;16272;48.188;9.964;2023-12-20T07:45:50;95983.59;;;4.14;87.48
29247;BME280;16272;48.188;9.964;2023-12-20T07:48:15;95997.84;;;4.48;87.29
29247;BME280;16272;48.188;9.964;2023-12-20T07:50:41;95996.94;;;4.23;87.85
29247;BME280;16272;48.188;9.964;2023-12-20T07:53:07;95993.91;;;4.17;88.53
29247;BME280;16272;48.188;9.964;2023-12-20T07:55:32;95984.72;;;4.22;88.32
29247;BME280;16272;48.188;9.964;2023-12-20T07:57:58;95992.31;;;4.27;88.54
29247;BME280;16272;48.188;9.964;2023-12-20T08:00:23;95994.69;;;4.43;87.38
29247;BME280;16272;48.188;9.964;2023-12-20T08:02:48;96001.09;;;4.39;87.51
29247;BME280;16272;48.188;9.964;2023-12-20T08:05:14;96001.97;;;4.64;86.48
29247;BME280;16272;48.188;9.964;2023-12-20T08:07:39;96010.25;;;4.46;87.10
29247;BME280;16272;48.188;9.964;2023-12-20T08:10:05;96009.19;;;4.49;87.68
29247;BME280;16272;48.188;9.964;2023-12-20T08:12:30;96005.09;;;4.45;88.06
29247;BME280;16272;48.188;9.964;2023-12-20T08:14:56;95996.34;;;4.44;87.96
29247;BME280;16272;48.188;9.964;2023-12-20T08:17:22;95995.13;;;4.37;88.17
29247;BME280;16272;48.188;9.964;2023-12-20T08:19:48;96006.03;;;4.56;87.82
29247;BME280;16272;48.188;9.964;2023-12-20T08:22:13;95998.03;;;4.45;87.62
29247;BME280;16272;48.188;9.964;2023-12-20T08:24:39;96004.25;;;4.44;88.54
29247;BME280;16272;48.188;9.964;2023-12-20T08:27:04;96003.53;;;4.42;87.72
29247;BME280;16272;48.188;9.964;2023-12-20T08:29:30;96005.63;;;4.37;88.46
29247;BME280;16272;48.188;9.964;2023-12-20T08:31:55;95994.78;;;4.54;88.28
29247;BME280;16272;48.188;9.964;2023-12-20T08:34:21;96009.19;;;4.49;87.64
29247;BME280;16272;48.188;9.964;2023-12-20T08:36:46;96003.09;;;4.48;88.32
29247;BME280;16272;48.188;9.964;2023-12-20T08:39:12;95997.44;;;4.41;88.16
29247;BME280;16272;48.188;9.964;2023-12-20T08:41:37;95985.91;;;4.55;88.06
29247;BME280;16272;48.188;9.964;2023-12-20T08:44:03;95991.63;;;4.73;87.90
29247;BME280;16272;48.188;9.964;2023-12-20T08:46:29;95995.16;;;4.85;86.98
29247;BME280;16272;48.188;9.964;2023-12-20T08:48:54;96000.91;;;4.79;87.31
29247;BME280;16272;48.188;9.964;2023-12-20T08:51:20;95998.03;;;5.06;87.35
29247;BME280;16272;48.188;9.964;2023-12-20T08:53:46;95998.13;;;5.05;86.89
29247;BME280;16272;48.188;9.964;2023-12-20T08:56:12;95996.75;;;5.12;86.79
29247;BME280;16272;48.188;9.964;2023-12-20T08:58:38;95994.34;;;5.09;86.49
29247;BME280;16272;48.188;9.964;2023-12-20T09:01:03;96001.19;;;5.23;85.80
29247;BME280;16272;48.188;9.964;2023-12-20T09:03:28;96003.69;;;5.13;86.68
29247;BME280;16272;48.188;9.964;2023-12-20T09:05:53;95996.31;;;5.29;86.45
29247;BME280;16272;48.188;9.964;2023-12-20T09:08:19;95996.00;;;5.10;86.42
29247;BME280;16272;48.188;9.964;2023-12-20T09:10:44;96006.50;;;4.99;86.24
29247;BME280;16272;48.188;9.964;2023-12-20T09:13:09;96009.31;;;5.20;86.63
29247;BME280;16272;48.188;9.964;2023-12-20T09:15:35;95995.06;;;5.11;86.69
29247;BME280;16272;48.188;9.964;2023-12-20T09:18:01;95992.38;;;5.00;86.10
29247;BME280;16272;48.188;9.964;2023-12-20T09:20:26;95981.91;;;5.11;86.59
29247;BME280;16272;48.188;9.964;2023-12-20T09:22:52;95983.38;;;4.91;86.59
29247;BME280;16272;48.188;9.964;2023-12-20T09:25:17;95974.09;;;5.33;85.89
29247;BME280;16272;48.188;9.964;2023-12-20T09:27:43;95977.06;;;5.29;85.26
29247;BME280;16272;48.188;9.964;2023-12-20T09:30:08;95977.06;;;5.29;86.28
29247;BME280;16272;48.188;9.964;2023-12-20T09:32:34;95971.06;;;5.27;85.08
29247;BME280;16272;48.188;9.964;2023-12-20T09:34:59;95977.53;;;5.81;85.63
29247;BME280;16272;48.188;9.964;2023-12-20T09:37:28;95983.09;;;6.34;82.33
29247;BME280;16272;48.188;9.964;2023-12-20T09:39:54;95991.47;;;6.39;83.89
29247;BME280;16272;48.188;9.964;2023-12-20T09:42:50;95982.47;;;7.29;81.75
29247;BME280;16272;48.188;9.964;2023-12-20T09:45:21;95987.22;;;7.14;79.32
29247;BME280;16272;48.188;9.964;2023-12-20T09:47:50;95990.34;;;6.76;81.87
29247;BME280;16272;48.188;9.964;2023-12-20T09:50:18;95982.50;;;6.42;82.20
29247;BME280;16272;48.188;9.964;2023-12-20T09:52:46;95981.66;;;6.41;81.74
29247;BME280;16272;48.188;9.964;2023-12-20T09:55:15;95979.44;;;5.90;83.64
29247;BME280;16272;48.188;9.964;2023-12-20T09:57:42;95978.50;;;5.80;83.57
29247;BME280;16272;48.188;9.964;2023-12-20T10:00:08;95978.22;;;5.71;83.92
29247;BME280;16272;48.188;9.964;2023-12-20T10:02:35;95969.66;;;5.92;83.11
29247;BME280;16272;48.188;9.964;2023-12-20T10:05:06;95964.16;;;5.95;83.66
29247;BME280;16272;48.188;9.964;2023-12-20T10:07:34;95955.50;;;5.93;83.63
29247;BME280;16272;48.188;9.964;2023-12-20T10:10:00;95961.50;;;6.29;82.29
29247;BME280;16272;48.188;9.964;2023-12-20T10:12:27;95956.91;;;6.65;82.17
29247;BME280;16272;48.188;9.964;2023-12-20T10:14:52;95953.47;;;6.97;80.18
29247;BME280;16272;48.188;9.964;2023-12-20T10:17:17;95947.50;;;7.37;79.37
29247;BME280;16272;48.188;9.964;2023-12-20T10:19:43;95950.28;;;7.03;81.41
29247;BME280;16272;48.188;9.964;2023-12-20T10:22:10;95960.19;;;6.90;81.12
29247;BME280;16272;48.188;9.964;2023-12-20T10:24:35;95947.53;;;7.05;80.23
29247;BME280;16272;48.188;9.964;2023-12-20T10:27:01;95949.56;;;7.12;79.97
29247;BME280;16272;48.188;9.964;2023-12-20T10:29:26;95954.94;;;6.78;81.12
29247;BME280;16272;48.188;9.964;2023-12-20T10:31:51;95956.84;;;6.88;79.88
29247;BME280;16272;48.188;9.964;2023-12-20T10:34:22;95953.72;;;6.94;80.27
29247;BME280;16272;48.188;9.964;2023-12-20T10:36:47;95956.81;;;6.99;79.53
29247;BME280;16272;48.188;9.964;2023-12-20T10:39:14;95945.78;;;6.94;79.74
29247;BME280;16272;48.188;9.964;2023-12-20T10:41:41;95944.63;;;6.75;79.70
29247;BME280;16272;48.188;9.964;2023-12-20T10:44:08;95938.53;;;6.63;80.27
29247;BME280;16272;48.188;9.964;2023-12-20T10:46:35;95939.66;;;6.61;79.54
29247;BME280;16272;48.188;9.964;2023-12-20T10:49:02;95947.34;;;6.41;79.22
29247;BME280;16272;48.188;9.964;2023-12-20T10:51:28;95940.19;;;6.10;80.16
29247;BME280;16272;48.188;9.964;2023-12-20T10:53:55;95940.88;;;6.23;80.02
29247;BME280;16272;48.188;9.964;2023-12-20T10:56:21;95946.91;;;6.14;79.58
29247;BME280;16272;48.188;9.964;2023-12-20T10:58:48;95940.41;;;6.06;80.37
29247;BME280;16272;48.188;9.964;2023-12-20T11:01:15;95943.06;;;6.18;79.71
29247;BME280;16272;48.188;9.964;2023-12-20T11:03:50;95944.50;;;6.22;79.48
29247;BME280;16272;48.188;9.964;2023-12-20T11:09:24;95940.63;;;6.37;79.71
29247;BME280;16272;48.188;9.964;2023-12-20T11:15:06;95928.91;;;6.19;80.19
29247;BME280;16272;48.188;9.964;2023-12-20T11:17:32;95935.03;;;6.08;80.32
29247;BME280;16272;48.188;9.964;2023-12-20T11:22:29;95938.47;;;5.63;79.25
29247;BME280;16272;48.188;9.964;2023-12-20T11:25:03;95944.13;;;5.23;79.36
29247;BME280;16272;48.188;9.964;2023-12-20T11:27:30;95954.81;;;4.97;80.78
29247;BME280;16272;48.188;9.964;2023-12-20T11:29:57;95943.34;;;4.99;81.13
29247;BME280;16272;48.188;9.964;2023-12-20T11:37:38;95955.72;;;5.67;79.82
29247;BME280;16272;48.188;9.964;2023-12-20T11:40:08;95948.50;;;5.47;79.98
29247;BME280;16272;48.188;9.964;2023-12-20T11:42:45;95952.06;;;5.34;79.46
29247;BME280;16272;48.188;9.964;2023-12-20T11:45:13;95942.53;;;5.79;78.34
29247;BME280;16272;48.188;9.964;2023-12-20T11:47:44;95943.44;;;6.02;78.15
29247;BME280;16272;48.188;9.964;2023-12-20T11:50:10;95939.47;;;5.96;78.58
29247;BME280;16272;48.188;9.964;2023-12-20T11:52:36;95946.84;;;5.68;78.64
29247;BME280;16272;48.188;9.964;2023-12-20T11:55:01;95950.78;;;5.51;78.90
29247;BME280;16272;48.188;9.964;2023-12-20T11:57:28;95953.41;;;5.51;78.32
29247;BME280;16272;48.188;9.964;2023-12-20T11:59:54;95960.50;;;5.51;78.79
29247;BME280;16272;48.188;9.964;2023-12-20T12:02:19;95942.78;;;5.64;77.27
29247;BME280;16272;48.188;9.964;2023-12-20T12:04:44;95938.91;;;5.57;78.21
29247;BME280;16272;48.188;9.964;2023-12-20T12:07:09;95947.03;;;5.31;77.39
29247;BME280;16272;48.188;9.964;2023-12-20T12:09:35;95934.84;;;5.53;76.29
29247;BME280;16272;48.188;9.964;2023-12-20T12:12:01;95938.59;;;5.15;75.59
29247;BME280;16272;48.188;9.964;2023-12-20T12:14:26;95940.50;;;5.13;75.06
29247;BME280;16272;48.188;9.964;2023-12-20T12:16:52;95941.72;;;5.20;75.24
29247;BME280;16272;48.188;9.964;2023-12-20T12:19:25;95942.81;;;4.93;75.41
29247;BME280;16272;48.188;9.964;2023-12-20T12:21:51;95939.66;;;5.12;75.49
29247;BME280;16272;48.188;9.964;2023-12-20T12:24:29;95936.75;;;5.40;74.36
29247;BME280;16272;48.188;9.964;2023-12-20T12:26:57;95934.09;;;5.28;75.51
29247;BME280;16272;48.188;9.964;2023-12-20T12:29:22;95929.34;;;5.45;74.04
29247;BME280;16272;48.188;9.964;2023-12-20T12:31:49;95937.22;;;5.33;75.05
29247;BME280;16272;48.188;9.964;2023-12-20T12:34:15;95936.97;;;5.37;74.44
29247;BME280;16272;48.188;9.964;2023-12-20T12:36:41;95933.72;;;5.22;74.42
29247;BME280;16272;48.188;9.964;2023-12-20T12:39:06;95932.72;;;5.58;74.73
29247;BME280;16272;48.188;9.964;2023-12-20T12:41:32;95934.19;;;5.27;75.33
29247;BME280;16272;48.188;9.964;2023-12-20T12:43:57;95935.28;;;5.36;74.91
29247;BME280;16272;48.188;9.964;2023-12-20T12:46:22;95925.47;;;5.26;74.69
29247;BME280;16272;48.188;9.964;2023-12-20T12:48:48;95920.88;;;5.17;74.90
29247;BME280;16272;48.188;9.964;2023-12-20T12:51:14;95931.19;;;5.20;76.10
29247;BME280;16272;48.188;9.964;2023-12-20T12:53:39;95926.97;;;5.18;75.92
29247;BME280;16272;48.188;9.964;2023-12-20T12:56:05;95916.13;;;5.33;75.88
29247;BME280;16272;48.188;9.964;2023-12-20T12:58:31;95914.75;;;5.86;74.81
29247;BME280;16272;48.188;9.964;2023-12-20T13:00:57;95917.53;;;5.96;72.78
29247;BME280;16272;48.188;9.964;2023-12-20T13:03:22;95917.88;;;5.91;73.18
29247;BME280;16272;48.188;9.964;2023-12-20T13:05:47;95922.34;;;6.02;74.63
29247;BME280;16272;48.188;9.964;2023-12-20T13:08:14;95912.63;;;6.02;71.86
29247;BME280;16272;48.188;9.964;2023-12-20T13:10:40;95912.41;;;6.05;71.31
29247;BME280;16272;48.188;9.964;2023-12-20T13:13:05;95911.28;;;5.85;70.99
29247;BME280;16272;48.188;9.964;2023-12-20T13:15:31;95912.59;;;5.80;71.81
29247;BME280;16272;48.188;9.964;2023-12-20T13:17:56;95918.84;;;6.13;70.47